createdAt,value
2019-05-11T00:01:25.716Z,15.83
2019-05-11T00:03:54.558Z,15.48
2019-05-11T00:06:23.345Z,13.75
2019-05-11T00:08:52.474Z,13.45
2019-05-11T00:11:21.242Z,14.50
2019-05-11T00:13:50.123Z,13.78
2019-05-11T00:16:19.282Z,14.37
2019-05-11T00:18:48.271Z,13.30
2019-05-11T00:21:17.078Z,13.45
2019-05-11T00:23:46.175Z,14.68
2019-05-11T00:26:15.174Z,13.08
2019-05-11T00:28:43.966Z,14.78
2019-05-11T00:31:12.778Z,13.80
2019-05-11T00:33:41.791Z,12.80
2019-05-11T00:36:10.555Z,13.00
2019-05-11T00:38:39.375Z,14.00
2019-05-11T00:41:08.243Z,14.73
2019-05-11T00:43:37.142Z,13.40
2019-05-11T00:46:07.999Z,11.90
2019-05-11T00:48:36.799Z,11.95
2019-05-11T00:51:05.631Z,12.45
2019-05-11T00:53:34.596Z,12.53
2019-05-11T00:56:03.545Z,13.43
2019-05-11T00:58:32.493Z,11.97
2019-05-11T01:01:01.304Z,12.40
2019-05-11T01:03:30.174Z,12.15
2019-05-11T01:05:59.057Z,12.43
2019-05-11T01:08:27.998Z,11.40
2019-05-11T01:10:57.118Z,14.07
2019-05-11T01:13:26.373Z,12.93
2019-05-11T01:15:55.174Z,11.08
2019-05-11T01:18:24.070Z,12.85
2019-05-11T01:20:53.290Z,10.53
2019-05-11T01:23:22.074Z,10.25
2019-05-11T01:25:50.864Z,11.38
2019-05-11T01:28:19.711Z,11.08
2019-05-11T01:30:48.597Z,11.85
2019-05-11T01:33:17.387Z,11.65
2019-05-11T01:35:46.426Z,11.85
2019-05-11T01:38:15.328Z,11.80
2019-05-11T01:40:57.694Z,11.93
2019-05-11T01:43:14.923Z,12.25
2019-05-11T01:45:43.807Z,11.93
2019-05-11T01:48:12.634Z,12.25
2019-05-11T01:50:41.449Z,12.30
2019-05-11T01:53:10.730Z,12.23
2019-05-11T01:55:39.586Z,11.93
2019-05-11T01:58:08.419Z,13.05
2019-05-11T02:00:37.298Z,13.62
2019-05-11T02:03:06.180Z,14.38
2019-05-11T02:05:35.169Z,14.20
2019-05-11T02:08:04.169Z,12.20
2019-05-11T02:10:33.108Z,12.73
2019-05-11T02:13:01.966Z,12.20
2019-05-11T02:15:30.942Z,12.18
2019-05-11T02:17:59.834Z,14.33
2019-05-11T02:20:28.898Z,13.62
2019-05-11T02:22:57.988Z,13.58
2019-05-11T02:25:27.147Z,13.53
2019-05-11T02:27:56.270Z,12.75
2019-05-11T02:30:25.200Z,14.25
2019-05-11T02:32:53.962Z,13.95
2019-05-11T02:35:22.764Z,13.45
2019-05-11T02:37:51.603Z,13.13
2019-05-11T02:40:20.875Z,13.65
2019-05-11T02:42:49.724Z,14.75
2019-05-11T02:45:37.819Z,13.70
2019-05-11T02:48:06.696Z,16.45
2019-05-11T02:50:36.738Z,15.10
2019-05-11T02:53:05.753Z,14.45
2019-05-11T02:55:35.614Z,13.80
2019-05-11T02:58:05.914Z,13.10
2019-05-11T03:00:38.359Z,14.17
2019-05-11T03:03:07.313Z,14.45
2019-05-11T03:05:36.477Z,14.00
2019-05-11T03:08:05.459Z,14.60
2019-05-11T03:10:34.296Z,14.03
2019-05-11T03:13:03.152Z,14.28
2019-05-11T03:15:32.084Z,14.55
2019-05-11T03:18:01.211Z,13.58
2019-05-11T03:20:30.166Z,15.48
2019-05-11T03:22:59.083Z,14.20
2019-05-11T03:25:27.968Z,15.23
2019-05-11T03:27:56.974Z,14.65
2019-05-11T03:30:26.116Z,15.10
2019-05-11T03:32:54.998Z,14.95
2019-05-11T03:35:23.884Z,13.40
2019-05-11T03:37:53.046Z,15.43
2019-05-11T03:40:21.916Z,13.10
2019-05-11T03:42:50.776Z,13.97
2019-05-11T03:45:19.642Z,13.10
2019-05-11T03:47:48.499Z,13.10
2019-05-11T03:50:17.507Z,14.78
2019-05-11T03:52:46.383Z,13.83
2019-05-11T03:55:15.323Z,15.50
2019-05-11T03:57:44.392Z,13.93
2019-05-11T04:00:13.387Z,14.87
2019-05-11T04:02:42.277Z,13.38
2019-05-11T04:05:11.120Z,14.40
2019-05-11T04:07:40.150Z,12.88
2019-05-11T04:10:09.528Z,13.13
2019-05-11T04:12:38.364Z,13.22
2019-05-11T04:15:08.918Z,13.53
2019-05-11T04:17:37.775Z,14.80
2019-05-11T04:20:07.251Z,16.45
2019-05-11T04:22:36.114Z,14.35
2019-05-11T04:25:05.682Z,13.95
2019-05-11T04:27:34.486Z,15.48
2019-05-11T04:30:03.381Z,14.28
2019-05-11T04:32:32.199Z,14.80
2019-05-11T04:35:01.022Z,17.00
2019-05-11T04:37:29.790Z,15.15
2019-05-11T04:39:58.699Z,15.50
2019-05-11T04:42:27.548Z,15.20
2019-05-11T04:44:56.367Z,16.45
2019-05-11T04:47:25.170Z,15.58
2019-05-11T04:49:53.975Z,15.83
2019-05-11T04:52:22.793Z,15.45
2019-05-11T04:54:51.663Z,15.98
2019-05-11T04:57:20.451Z,14.65
2019-05-11T04:59:49.517Z,13.58
2019-05-11T05:02:18.303Z,13.83
2019-05-11T05:04:47.570Z,14.58
2019-05-11T05:07:16.746Z,14.90
2019-05-11T05:09:45.696Z,14.05
2019-05-11T05:12:15.685Z,15.00
2019-05-11T05:14:45.067Z,14.38
2019-05-11T05:17:13.862Z,13.00
2019-05-11T05:19:42.674Z,13.50
2019-05-11T05:22:11.990Z,15.18
2019-05-11T05:24:40.788Z,13.45
2019-05-11T05:27:10.123Z,14.60
2019-05-11T05:29:39.365Z,14.68
2019-05-11T05:32:08.531Z,14.43
2019-05-11T05:34:37.659Z,13.35
2019-05-11T05:37:06.519Z,14.18
2019-05-11T05:39:35.299Z,13.65
2019-05-11T05:42:04.119Z,14.23
2019-05-11T05:44:32.981Z,12.85
2019-05-11T05:47:01.836Z,12.75
2019-05-11T05:49:30.650Z,14.00
2019-05-11T05:51:59.451Z,12.82
2019-05-11T05:54:28.334Z,12.60
2019-05-11T05:56:57.527Z,12.58
2019-05-11T05:59:26.638Z,11.38
2019-05-11T06:01:55.539Z,12.30
2019-05-11T06:04:24.368Z,11.68
2019-05-11T06:06:53.407Z,13.27
2019-05-11T06:09:22.179Z,10.95
2019-05-11T06:11:51.043Z,13.95
2019-05-11T06:14:19.887Z,14.07
2019-05-11T06:16:48.805Z,14.90
2019-05-11T06:19:17.771Z,15.45
2019-05-11T06:21:46.574Z,17.17
2019-05-11T06:24:15.680Z,16.85
2019-05-11T06:26:44.514Z,12.28
2019-05-11T06:29:13.471Z,11.80
2019-05-11T06:31:42.612Z,10.65
2019-05-11T06:34:11.445Z,8.10
2019-05-11T06:36:40.202Z,8.95
2019-05-11T06:39:09.149Z,7.40
2019-05-11T06:41:38.076Z,8.83
2019-05-11T06:44:07.014Z,8.48
2019-05-11T06:46:35.777Z,6.60
2019-05-11T06:49:04.659Z,6.28
2019-05-11T06:51:33.794Z,5.60
2019-05-11T06:54:02.827Z,5.25
2019-05-11T06:56:31.607Z,5.80
2019-05-11T06:59:00.442Z,6.83
2019-05-11T07:01:29.221Z,6.00
2019-05-11T07:03:58.045Z,6.22
2019-05-11T07:06:30.333Z,5.55
2019-05-11T07:08:57.450Z,5.58
2019-05-11T07:11:26.416Z,4.45
2019-05-11T07:13:55.314Z,4.95
2019-05-11T07:16:24.191Z,4.33
2019-05-11T07:18:52.986Z,5.37
2019-05-11T07:21:21.961Z,4.17
2019-05-11T07:23:50.790Z,5.28
2019-05-11T07:26:19.758Z,3.33
2019-05-11T07:28:48.607Z,3.42
2019-05-11T07:31:17.483Z,3.98
2019-05-11T07:33:48.494Z,4.67
2019-05-11T07:36:17.787Z,3.80
2019-05-11T07:38:48.696Z,3.58
2019-05-11T07:41:17.709Z,4.12
2019-05-11T07:43:48.453Z,4.17
2019-05-11T07:46:18.351Z,3.45
2019-05-11T07:48:48.066Z,3.12
2019-05-11T07:51:18.259Z,3.07
2019-05-11T07:53:48.663Z,2.77
2019-05-11T07:56:18.714Z,4.70
2019-05-11T07:58:48.235Z,2.98
2019-05-11T08:01:18.912Z,2.47
2019-05-11T08:03:48.498Z,3.72
2019-05-11T08:06:18.321Z,4.87
2019-05-11T08:08:49.088Z,3.27
2019-05-11T08:11:18.402Z,3.17
2019-05-11T08:13:48.204Z,4.00
2019-05-11T08:16:18.563Z,3.13
2019-05-11T08:18:48.387Z,3.95
2019-05-11T08:21:17.978Z,4.55
2019-05-11T08:23:48.306Z,3.33
2019-05-11T08:26:19.066Z,3.70
2019-05-11T08:28:48.611Z,2.40
2019-05-11T08:31:18.674Z,4.15
2019-05-11T08:33:48.259Z,3.80
2019-05-11T08:36:18.376Z,4.33
2019-05-11T08:38:48.305Z,2.85
2019-05-11T08:41:18.425Z,5.12
2019-05-11T08:43:48.158Z,2.65
2019-05-11T08:46:18.498Z,3.52
2019-05-11T08:48:48.014Z,3.27
2019-05-11T08:51:18.729Z,2.83
2019-05-11T08:53:48.167Z,2.47
2019-05-11T08:56:18.853Z,4.30
2019-05-11T08:58:49.173Z,4.65
2019-05-11T09:01:18.606Z,3.40
2019-05-11T09:03:47.930Z,3.47
2019-05-11T09:06:17.893Z,4.20
2019-05-11T09:08:49.328Z,3.60
2019-05-11T09:11:19.111Z,3.15
2019-05-11T09:13:48.956Z,2.62
2019-05-11T09:16:19.019Z,3.47
2019-05-11T09:18:48.222Z,3.45
2019-05-11T09:21:19.013Z,4.28
2019-05-11T09:23:48.571Z,2.42
2019-05-11T09:26:18.351Z,2.72
2019-05-11T09:28:47.845Z,2.07
2019-05-11T09:31:18.633Z,2.52
2019-05-11T09:33:48.040Z,4.25
2019-05-11T09:36:18.040Z,2.58
2019-05-11T09:38:48.910Z,2.05
2019-05-11T09:41:18.298Z,3.42
2019-05-11T09:43:48.307Z,2.65
2019-05-11T09:46:18.780Z,1.98
2019-05-11T09:48:48.470Z,3.83
2019-05-11T09:51:18.425Z,4.30
2019-05-11T09:53:48.507Z,2.80
2019-05-11T09:56:18.276Z,4.35
2019-05-11T09:58:48.166Z,3.33
2019-05-11T10:01:18.264Z,2.95
2019-05-11T10:03:48.279Z,3.85
2019-05-11T10:06:18.981Z,3.17
2019-05-11T10:08:48.678Z,2.40
2019-05-11T10:11:19.055Z,3.70
2019-05-11T10:13:48.460Z,3.40
2019-05-11T10:16:18.042Z,3.83
2019-05-11T10:18:49.237Z,2.17
2019-05-11T10:21:18.854Z,2.83
2019-05-11T10:23:48.873Z,6.30
2019-05-11T10:26:18.955Z,4.10
2019-05-11T10:28:48.399Z,4.40
2019-05-11T10:31:18.105Z,2.87
2019-05-11T10:33:48.956Z,3.80
2019-05-11T10:36:18.798Z,6.55
2019-05-11T10:38:48.854Z,5.15
2019-05-11T10:41:18.473Z,3.08
2019-05-11T10:43:48.990Z,2.58
2019-05-11T10:46:23.060Z,3.72
2019-05-11T10:48:48.698Z,4.10
2019-05-11T10:51:18.461Z,4.58
2019-05-11T10:53:51.619Z,3.55
2019-05-11T10:56:18.147Z,3.92
2019-05-11T10:58:48.188Z,5.60
2019-05-11T11:01:18.226Z,3.58
2019-05-11T11:03:48.335Z,4.72
2019-05-11T11:06:18.814Z,4.33
2019-05-11T11:08:48.643Z,4.28
2019-05-11T11:11:18.664Z,4.00
2019-05-11T11:13:48.118Z,4.70
2019-05-11T11:16:32.802Z,4.47
2019-05-11T11:18:48.676Z,4.28
2019-05-11T11:21:22.630Z,4.17
2019-05-11T11:23:48.343Z,3.90
2019-05-11T11:26:25.087Z,3.60
2019-05-11T11:28:53.899Z,4.45
2019-05-11T11:31:22.696Z,3.65
2019-05-11T11:33:51.775Z,4.65
2019-05-11T11:36:20.606Z,3.72
2019-05-11T11:38:49.456Z,4.22
2019-05-11T11:41:18.804Z,4.83
2019-05-11T11:43:48.402Z,5.15
2019-05-11T11:46:18.788Z,3.98
2019-05-11T11:48:49.206Z,4.17
2019-05-11T11:51:18.865Z,3.35
2019-05-11T11:53:48.180Z,5.30
2019-05-11T11:56:19.175Z,4.42
2019-05-11T11:58:48.811Z,3.30
2019-05-11T12:01:19.014Z,5.60
2019-05-11T12:03:49.003Z,2.92
2019-05-11T12:06:18.335Z,5.10
2019-05-11T12:08:49.684Z,3.20
2019-05-11T12:11:18.956Z,3.22
2019-05-11T12:13:47.956Z,3.55
2019-05-11T12:16:18.130Z,4.70
2019-05-11T12:18:48.644Z,4.05
2019-05-11T12:21:18.563Z,4.00
2019-05-11T12:23:48.557Z,4.30
2019-05-11T12:26:18.030Z,5.90
2019-05-11T12:28:48.982Z,3.40
2019-05-11T12:31:18.429Z,3.42
2019-05-11T12:33:48.503Z,3.70
2019-05-11T12:36:18.704Z,2.65
2019-05-11T12:38:48.865Z,4.35
2019-05-11T12:41:18.990Z,2.98
2019-05-11T12:43:49.064Z,2.70
2019-05-11T12:46:18.962Z,3.67
2019-05-11T12:48:48.803Z,2.87
2019-05-11T12:51:18.664Z,3.77
2019-05-11T12:53:47.934Z,4.65
2019-05-11T12:56:18.983Z,6.83
2019-05-11T12:58:49.145Z,5.75
2019-05-11T13:01:18.847Z,3.77
2019-05-11T13:03:49.529Z,4.58
2019-05-11T13:06:19.223Z,2.37
2019-05-11T13:08:48.402Z,3.50
2019-05-11T13:11:18.674Z,3.50
2019-05-11T13:13:48.400Z,2.47
2019-05-11T13:16:18.372Z,3.52
2019-05-11T13:18:48.736Z,4.17
2019-05-11T13:21:18.365Z,4.72
2019-05-11T13:23:48.927Z,2.90
2019-05-11T13:26:18.259Z,2.53
2019-05-11T13:28:48.452Z,4.97
2019-05-11T13:31:18.740Z,3.00
2019-05-11T13:33:48.280Z,3.60
2019-05-11T13:36:18.539Z,3.10
2019-05-11T13:38:48.288Z,3.83
2019-05-11T13:41:18.741Z,3.37
2019-05-11T13:43:48.847Z,3.30
2019-05-11T13:46:18.169Z,2.45
2019-05-11T13:48:47.739Z,2.47
2019-05-11T13:51:18.194Z,2.83
2019-05-11T13:53:48.169Z,3.10
2019-05-11T13:56:18.318Z,3.13
2019-05-11T13:58:48.842Z,2.40
2019-05-11T14:01:18.401Z,2.70
2019-05-11T14:03:48.325Z,3.72
2019-05-11T14:06:18.493Z,3.15
2019-05-11T14:11:18.468Z,3.62
2019-05-11T14:13:48.178Z,3.40
2019-05-11T14:16:18.558Z,3.70
2019-05-11T14:18:48.855Z,2.62
2019-05-11T14:21:18.641Z,3.27
2019-05-11T14:23:48.406Z,1.70
2019-05-11T14:26:19.159Z,4.65
2019-05-11T14:28:48.278Z,2.17
2019-05-11T14:31:18.871Z,1.52
2019-05-11T14:32:21.068Z,2.67
2019-05-11T14:33:48.843Z,2.55
2019-05-11T14:36:18.589Z,4.28
2019-05-11T14:38:48.705Z,6.20
2019-05-11T14:41:18.349Z,1.70
2019-05-11T14:43:49.037Z,1.80
2019-05-11T14:46:18.280Z,1.52
2019-05-11T14:48:48.170Z,1.27
2019-05-11T14:51:18.038Z,1.87
2019-05-11T14:53:48.215Z,7.47
2019-05-11T14:56:18.946Z,1.50
2019-05-11T14:58:49.209Z,1.90
2019-05-11T15:01:18.572Z,1.70
2019-05-11T15:03:48.683Z,2.62
2019-05-11T15:06:18.804Z,2.97
2019-05-11T15:08:48.379Z,2.10
2019-05-11T15:11:19.189Z,1.90
2019-05-11T15:13:48.840Z,2.60
2019-05-11T15:16:18.707Z,2.42
2019-05-11T15:18:48.598Z,2.12
2019-05-11T15:21:18.958Z,2.00
2019-05-11T15:23:48.351Z,2.20
2019-05-11T15:26:18.683Z,3.33
2019-05-11T15:28:48.686Z,3.72
2019-05-11T15:31:22.152Z,3.10
2019-05-11T15:33:49.021Z,3.15
2019-05-11T15:36:19.336Z,2.65
2019-05-11T15:38:48.679Z,2.20
2019-05-11T15:41:17.878Z,3.83
2019-05-11T15:43:47.952Z,3.85
2019-05-11T15:46:19.575Z,1.77
2019-05-11T15:48:57.838Z,3.75
2019-05-11T15:51:18.878Z,6.78
2019-05-11T15:53:50.259Z,3.47
2019-05-11T15:56:18.984Z,5.65
2019-05-11T15:58:48.553Z,2.95
2019-05-11T16:01:18.572Z,4.60
2019-05-11T16:03:49.992Z,4.30
2019-05-11T16:06:18.724Z,3.92
2019-05-11T16:08:47.704Z,4.97
2019-05-11T16:11:18.120Z,3.98
2019-05-11T16:13:48.392Z,3.87
2019-05-11T16:16:17.487Z,2.98
2019-05-11T16:18:48.381Z,3.27
2019-05-11T16:21:18.176Z,3.35
2019-05-11T16:23:47.955Z,4.53
2019-05-11T16:26:17.609Z,4.53
2019-05-11T16:28:47.698Z,5.87
2019-05-11T16:31:17.993Z,2.37
2019-05-11T16:33:48.427Z,2.05
2019-05-11T16:36:18.009Z,2.05
2019-05-11T16:38:48.335Z,5.72
2019-05-11T16:41:18.272Z,4.40
2019-05-11T16:43:48.037Z,2.30
2019-05-11T16:46:17.719Z,3.05
2019-05-11T16:48:46.668Z,5.42
2019-05-11T16:51:17.601Z,3.42
2019-05-11T16:53:47.943Z,3.27
2019-05-11T16:56:16.583Z,3.17
2019-05-11T16:58:48.490Z,3.07
2019-05-11T17:01:18.821Z,3.35
2019-05-11T17:03:48.214Z,2.55
2019-05-11T17:06:19.526Z,3.20
2019-05-11T17:08:48.693Z,5.05
2019-05-11T17:11:18.611Z,7.33
2019-05-11T17:13:48.468Z,5.58
2019-05-11T17:16:17.908Z,4.23
2019-05-11T17:18:48.430Z,3.27
2019-05-11T17:21:18.367Z,7.67
2019-05-11T17:23:48.773Z,4.33
2019-05-11T17:26:18.971Z,3.55
2019-05-11T17:28:48.970Z,5.40
2019-05-11T17:31:18.808Z,2.65
2019-05-11T17:33:47.892Z,3.55
2019-05-11T17:36:18.701Z,9.30
2019-05-11T17:38:47.999Z,3.83
2019-05-11T17:41:16.918Z,8.60
2019-05-11T17:43:47.835Z,5.22
2019-05-11T17:46:18.425Z,4.47
2019-05-11T17:48:47.148Z,4.20
2019-05-11T17:51:21.857Z,6.20
2019-05-11T17:53:48.268Z,5.25
2019-05-11T17:56:17.162Z,2.77
2019-05-11T17:58:48.171Z,4.08
2019-05-11T18:01:18.688Z,3.22
2019-05-11T18:03:47.595Z,5.87
2019-05-11T18:06:18.444Z,5.12
2019-05-11T18:08:47.914Z,5.17
2019-05-11T18:11:18.537Z,4.80
2019-05-11T18:13:48.232Z,5.72
2019-05-11T18:16:18.682Z,4.67
2019-05-11T18:18:48.384Z,5.23
2019-05-11T18:21:18.900Z,5.87
2019-05-11T18:23:48.204Z,6.87
2019-05-11T18:26:18.109Z,6.87
2019-05-11T18:28:48.267Z,6.43
2019-05-11T18:31:18.123Z,9.23
2019-05-11T18:33:48.721Z,7.28
2019-05-11T18:36:18.329Z,6.00
2019-05-11T18:38:48.744Z,8.70
2019-05-11T18:41:17.810Z,8.70
2019-05-11T18:43:48.328Z,7.92
2019-05-11T18:46:17.325Z,8.60
2019-05-11T18:48:48.531Z,6.47
2019-05-11T18:51:17.045Z,10.13
2019-05-11T18:53:48.228Z,6.83
2019-05-11T18:56:18.142Z,8.33
2019-05-11T18:58:47.773Z,7.27
2019-05-11T19:01:17.833Z,6.80
2019-05-11T19:03:47.841Z,7.73
2019-05-11T19:06:18.413Z,9.05
2019-05-11T19:08:51.034Z,7.27
2019-05-11T19:11:19.815Z,6.30
2019-05-11T19:13:48.661Z,6.72
2019-05-11T19:16:18.751Z,6.90
2019-05-11T19:18:48.091Z,10.60
2019-05-11T19:21:17.987Z,6.47
2019-05-11T19:23:48.655Z,7.40
2019-05-11T19:26:18.270Z,6.72
2019-05-11T19:28:47.222Z,5.93
2019-05-11T19:31:18.917Z,8.30
2019-05-11T19:33:48.745Z,8.68
2019-05-11T19:36:17.098Z,9.08
2019-05-11T19:38:47.875Z,8.90
2019-05-11T19:41:18.539Z,9.60
2019-05-11T19:43:48.608Z,9.18
2019-05-11T19:46:18.369Z,9.17
2019-05-11T19:48:47.555Z,8.95
2019-05-11T19:51:18.292Z,9.23
2019-05-11T19:53:48.376Z,8.48
2019-05-11T19:56:18.280Z,6.97
2019-05-11T19:58:48.525Z,6.85
2019-05-11T20:01:18.803Z,10.90
2019-05-11T20:03:47.842Z,7.92
2019-05-11T20:06:16.702Z,7.00
2019-05-11T20:08:45.502Z,6.12
2019-05-11T20:11:14.338Z,6.60
2019-05-11T20:13:43.548Z,9.38
2019-05-11T20:16:12.348Z,10.15
2019-05-11T20:18:41.140Z,10.78
2019-05-11T20:21:19.319Z,8.23
2019-05-11T20:23:40.507Z,11.55
2019-05-11T20:26:09.330Z,11.33
2019-05-11T20:28:38.119Z,8.80
2019-05-11T20:31:08.035Z,5.80
2019-05-11T20:33:38.582Z,11.50
2019-05-11T20:36:08.703Z,7.90
2019-05-11T20:38:38.403Z,7.42
2019-05-11T20:41:08.386Z,7.43
2019-05-11T20:43:37.352Z,7.17
2019-05-11T20:46:08.210Z,7.40
2019-05-11T20:48:38.238Z,5.45
2019-05-11T20:51:08.096Z,5.80
2019-05-11T20:53:38.750Z,6.93
2019-05-11T20:56:08.676Z,3.47
2019-05-11T20:58:58.776Z,4.90
2019-05-11T21:01:28.662Z,3.72
2019-05-11T21:03:58.875Z,4.35
2019-05-11T21:06:29.552Z,2.87
2019-05-11T21:08:58.366Z,4.08
2019-05-11T21:11:27.158Z,4.10
2019-05-11T21:13:55.993Z,6.17
2019-05-11T21:16:24.782Z,5.22
2019-05-11T21:18:53.560Z,5.85
2019-05-11T21:21:22.524Z,6.75
2019-05-11T21:23:51.310Z,5.95
2019-05-11T21:26:20.157Z,6.33
2019-05-11T21:28:48.960Z,6.47
2019-05-11T21:31:18.592Z,5.67
2019-05-11T21:33:47.605Z,7.58
2019-05-11T21:36:17.975Z,5.65
2019-05-11T21:38:48.173Z,6.57
2019-05-11T21:41:17.351Z,6.50
2019-05-11T21:43:48.196Z,5.50
2019-05-11T21:46:18.065Z,5.83
2019-05-11T21:48:47.850Z,5.55
2019-05-11T21:51:18.120Z,4.80
2019-05-11T21:53:48.706Z,5.10
2019-05-11T21:56:18.736Z,4.97
2019-05-11T21:58:47.973Z,6.20
2019-05-11T22:01:18.417Z,6.10
2019-05-11T22:03:47.996Z,6.27
2019-05-11T22:06:16.934Z,7.70
2019-05-11T22:08:48.255Z,7.87
2019-05-11T22:11:17.965Z,7.93
2019-05-11T22:13:48.433Z,8.63
2019-05-11T22:16:17.510Z,8.48
2019-05-11T22:18:48.395Z,8.23
2019-05-11T22:21:18.761Z,10.30
2019-05-11T22:23:50.419Z,8.43
2019-05-11T22:26:18.070Z,9.38
2019-05-11T22:28:48.260Z,8.95
2019-05-11T22:31:18.211Z,9.83
2019-05-11T22:33:48.040Z,9.98
2019-05-11T22:36:16.947Z,10.63
2019-05-11T22:38:48.124Z,10.82
2019-05-11T22:41:18.009Z,10.55
2019-05-11T22:43:48.559Z,11.70
2019-05-11T22:46:17.736Z,11.57
2019-05-11T22:48:48.911Z,10.38
2019-05-11T22:51:18.348Z,12.60
2019-05-11T22:53:50.202Z,11.90
2019-05-11T22:56:20.071Z,12.18
2019-05-11T22:58:49.989Z,11.50
2019-05-11T23:01:18.878Z,12.15
2019-05-11T23:03:47.694Z,11.15
2019-05-11T23:06:18.041Z,11.88
2019-05-11T23:08:48.332Z,15.23
2019-05-11T23:11:18.195Z,11.38
2019-05-11T23:13:47.855Z,11.15
2019-05-11T23:16:18.055Z,10.72
2019-05-11T23:18:48.091Z,11.03
2019-05-11T23:21:17.142Z,9.85
2019-05-11T23:23:47.857Z,9.23
2019-05-11T23:26:17.789Z,9.50
2019-05-11T23:28:48.650Z,8.13
2019-05-11T23:31:17.599Z,5.03
2019-05-11T23:33:46.488Z,6.00
2019-05-11T23:36:15.354Z,3.08
2019-05-11T23:38:44.235Z,1.40
2019-05-11T23:41:24.099Z,1.98
2019-05-11T23:43:43.627Z,1.57
2019-05-11T23:46:12.419Z,1.67
2019-05-11T23:48:41.260Z,1.60
2019-05-11T23:51:10.223Z,1.92
2019-05-11T23:53:39.038Z,1.70
2019-05-11T23:56:07.879Z,1.60
2019-05-11T23:58:38.968Z,1.40
